logo
Search for airport 
image banner adimage banner adimage banner ad
image banner ad

OIBL - Bandar Lengeh / Secondary International Aerodrome

Located in Bandar Lengeh, Iran, Islamic Republic of

ICAO - OIBL, IATA - BDH

Data provided by Airmate  

General information

Coordinates: N26°31'53" E54°49'39"
Elevation is 75 feet MSL.
 
View others Airports in Hormozgan Province

Operational data

Special qualification required
Current time UTC:
Current local time:
Weather
METAR: OIBL 130700Z 26016KT 8000 NSC 30/16 Q1006
View NOTAMs / SUP AIP / TFR affecting this airport [VIEW]
Communications frequencies: [VIEW]

Runways:

RWY identifierQFULength (ft)Width (ft)SurfaceLDA (ft)
0881°8202148ASP
26261°8202148ASP

Airport contact information

Address: Bandar Lengeh Iran, Islamic Republic of

Satellite view of OIBL